Accueil
METAR-TAF:

METAR-TAF

Aéroports :

Aéroport domestique de Najran

Najran, Arabie saoudite

latitude: 17-37N, longitude: 044-25E, altitude: 1212 m

Observation

Le bulletin a été fait il y a 1 heure et 16 minutes, à 05:00 UTC
Vent calme
Température 12°C
Humidité 32%
Pression 1022 hPa
Visibilité: 6000 m

METAR: OENG 240500Z 00000KT 6000 NSC 12/M04 Q1022 NOSIG

Heure: 09:16 (06:16 UTC)

Prévision

Le bulletin a été fait il y a 7 heures et 16 minutes, à 23:00 UTC
Prévision valable du 24 à 00 UTC au 25 à 06 UTC
Vent 3 kt de direction variable
Visibilité: 7000 m
Evoluant progressivement
du 24 à 08 UTC au 24 à 10 UTC
Vent 10 kt de est
Evoluant progressivement
du 24 à 20 UTC au 24 à 22 UTC
Vent 6 kt de sud-ouest

TAF: OENG 232300Z 2400/2506 VRB03KT 7000 NSC BECMG 2408/2410 09010KT BECMG 2420/2422 22006KT

Observations et prévisions météorologiques de plus de 4000 aéroports (messages METAR et TAF).

Les stations disponibles sont représentées par des disques jaunes et rouges sur la carte.

Passer la souris dessus pour voir le nom de la station.

Cliquer dessus pour voir les observations et prévisions météorologiques.

Pour changer de carte: cliquez sur les boutons verts avec une croix noire pour zoomer, sur le bouton vert avec un tiret pour effectuer un zoom arrière, ou sur les flèches vertes pour les cartes adjacentes.


METAR-TAF: